sensor_id;sensor_type;location;lat;lon;timestamp;P1;durP1;ratioP1;P2;durP2;ratioP2
10902;SDS011;5504;47.312;11.060;2023-04-24T00:00:15;0.63;;;0.30;;
10902;SDS011;5504;47.312;11.060;2023-04-24T00:02:42;0.30;;;0.30;;
10902;SDS011;5504;47.312;11.060;2023-04-24T00:05:13;0.33;;;0.30;;
10902;SDS011;5504;47.312;11.060;2023-04-24T00:07:40;0.93;;;0.50;;
10902;SDS011;5504;47.312;11.060;2023-04-24T00:10:06;0.27;;;0.27;;
10902;SDS011;5504;47.312;11.060;2023-04-24T00:12:33;0.40;;;0.40;;
10902;SDS011;5504;47.312;11.060;2023-04-24T00:14:59;0.77;;;0.20;;
10902;SDS011;5504;47.312;11.060;2023-04-24T00:17:25;0.30;;;0.30;;
10902;SDS011;5504;47.312;11.060;2023-04-24T00:19:51;0.23;;;0.20;;
10902;SDS011;5504;47.312;11.060;2023-04-24T00:22:23;0.33;;;0.20;;
10902;SDS011;5504;47.312;11.060;2023-04-24T00:24:52;0.50;;;0.37;;
10902;SDS011;5504;47.312;11.060;2023-04-24T00:27:19;0.30;;;0.30;;
10902;SDS011;5504;47.312;11.060;2023-04-24T00:29:45;2.30;;;0.40;;
10902;SDS011;5504;47.312;11.060;2023-04-24T00:32:10;1.30;;;0.40;;
10902;SDS011;5504;47.312;11.060;2023-04-24T00:34:36;0.93;;;0.40;;
10902;SDS011;5504;47.312;11.060;2023-04-24T00:37:02;0.57;;;0.50;;
10902;SDS011;5504;47.312;11.060;2023-04-24T00:39:28;2.00;;;0.40;;
10902;SDS011;5504;47.312;11.060;2023-04-24T00:41:53;1.30;;;0.50;;
10902;SDS011;5504;47.312;11.060;2023-04-24T00:44:20;0.90;;;0.43;;
10902;SDS011;5504;47.312;11.060;2023-04-24T00:46:46;1.37;;;0.30;;
10902;SDS011;5504;47.312;11.060;2023-04-24T00:49:16;1.13;;;0.57;;
10902;SDS011;5504;47.312;11.060;2023-04-24T00:51:43;0.30;;;0.30;;
10902;SDS011;5504;47.312;11.060;2023-04-24T00:54:10;0.40;;;0.30;;
10902;SDS011;5504;47.312;11.060;2023-04-24T00:56:36;1.00;;;0.20;;
10902;SDS011;5504;47.312;11.060;2023-04-24T00:59:02;1.97;;;0.70;;
10902;SDS011;5504;47.312;11.060;2023-04-24T01:01:29;0.83;;;0.33;;
10902;SDS011;5504;47.312;11.060;2023-04-24T01:03:55;1.97;;;0.50;;
10902;SDS011;5504;47.312;11.060;2023-04-24T01:06:22;1.63;;;0.70;;
10902;SDS011;5504;47.312;11.060;2023-04-24T01:08:52;0.83;;;0.40;;
10902;SDS011;5504;47.312;11.060;2023-04-24T01:11:18;2.57;;;0.93;;
10902;SDS011;5504;47.312;11.060;2023-04-24T01:13:45;1.20;;;0.70;;
10902;SDS011;5504;47.312;11.060;2023-04-24T01:16:12;2.27;;;0.50;;
10902;SDS011;5504;47.312;11.060;2023-04-24T01:18:38;0.80;;;0.50;;
10902;SDS011;5504;47.312;11.060;2023-04-24T01:21:04;1.97;;;0.40;;
10902;SDS011;5504;47.312;11.060;2023-04-24T01:23:30;2.57;;;0.47;;
10902;SDS011;5504;47.312;11.060;2023-04-24T01:25:56;1.17;;;0.40;;
10902;SDS011;5504;47.312;11.060;2023-04-24T01:28:22;1.00;;;0.40;;
10902;SDS011;5504;47.312;11.060;2023-04-24T01:30:48;0.97;;;0.50;;
10902;SDS011;5504;47.312;11.060;2023-04-24T01:33:14;1.03;;;0.40;;
10902;SDS011;5504;47.312;11.060;2023-04-24T01:35:40;0.30;;;0.30;;
10902;SDS011;5504;47.312;11.060;2023-04-24T01:38:06;0.50;;;0.40;;
10902;SDS011;5504;47.312;11.060;2023-04-24T01:40:32;0.80;;;0.40;;
10902;SDS011;5504;47.312;11.060;2023-04-24T01:42:58;1.23;;;0.47;;
10902;SDS011;5504;47.312;11.060;2023-04-24T01:45:24;0.43;;;0.30;;
10902;SDS011;5504;47.312;11.060;2023-04-24T01:47:50;0.90;;;0.60;;
10902;SDS011;5504;47.312;11.060;2023-04-24T01:50:16;1.23;;;0.50;;
10902;SDS011;5504;47.312;11.060;2023-04-24T01:52:42;0.73;;;0.47;;
10902;SDS011;5504;47.312;11.060;2023-04-24T01:55:08;1.00;;;0.53;;
10902;SDS011;5504;47.312;11.060;2023-04-24T01:57:35;1.70;;;0.40;;
10902;SDS011;5504;47.312;11.060;2023-04-24T02:00:01;0.63;;;0.40;;
10902;SDS011;5504;47.312;11.060;2023-04-24T02:02:29;0.93;;;0.40;;
10902;SDS011;5504;47.312;11.060;2023-04-24T02:04:55;1.80;;;0.40;;
10902;SDS011;5504;47.312;11.060;2023-04-24T02:07:21;1.07;;;0.40;;
10902;SDS011;5504;47.312;11.060;2023-04-24T02:09:47;0.83;;;0.30;;
10902;SDS011;5504;47.312;11.060;2023-04-24T02:12:14;1.63;;;0.40;;
10902;SDS011;5504;47.312;11.060;2023-04-24T02:14:40;0.97;;;0.37;;
10902;SDS011;5504;47.312;11.060;2023-04-24T02:17:07;0.70;;;0.30;;
10902;SDS011;5504;47.312;11.060;2023-04-24T02:19:33;0.60;;;0.30;;
10902;SDS011;5504;47.312;11.060;2023-04-24T02:21:58;0.30;;;0.20;;
10902;SDS011;5504;47.312;11.060;2023-04-24T02:24:24;1.03;;;0.30;;
10902;SDS011;5504;47.312;11.060;2023-04-24T02:26:50;1.03;;;0.30;;
10902;SDS011;5504;47.312;11.060;2023-04-24T02:29:15;0.20;;;0.20;;
10902;SDS011;5504;47.312;11.060;2023-04-24T02:31:41;0.40;;;0.20;;
10902;SDS011;5504;47.312;11.060;2023-04-24T02:34:07;0.57;;;0.20;;
10902;SDS011;5504;47.312;11.060;2023-04-24T02:36:33;0.57;;;0.30;;
10902;SDS011;5504;47.312;11.060;2023-04-24T02:38:58;0.93;;;0.30;;
10902;SDS011;5504;47.312;11.060;2023-04-24T02:41:25;0.20;;;0.20;;
10902;SDS011;5504;47.312;11.060;2023-04-24T02:43:56;1.93;;;0.37;;
10902;SDS011;5504;47.312;11.060;2023-04-24T02:46:22;0.30;;;0.30;;
10902;SDS011;5504;47.312;11.060;2023-04-24T02:48:48;1.70;;;0.33;;
10902;SDS011;5504;47.312;11.060;2023-04-24T02:51:14;0.20;;;0.20;;
10902;SDS011;5504;47.312;11.060;2023-04-24T02:53:40;0.77;;;0.20;;
10902;SDS011;5504;47.312;11.060;2023-04-24T02:56:05;0.57;;;0.43;;
10902;SDS011;5504;47.312;11.060;2023-04-24T02:58:31;0.53;;;0.40;;
10902;SDS011;5504;47.312;11.060;2023-04-24T03:00:57;0.53;;;0.40;;
10902;SDS011;5504;47.312;11.060;2023-04-24T03:03:22;1.07;;;0.50;;
10902;SDS011;5504;47.312;11.060;2023-04-24T03:05:49;0.50;;;0.50;;
10902;SDS011;5504;47.312;11.060;2023-04-24T03:08:15;0.40;;;0.30;;
10902;SDS011;5504;47.312;11.060;2023-04-24T03:10:41;0.53;;;0.40;;
10902;SDS011;5504;47.312;11.060;2023-04-24T03:13:06;0.73;;;0.40;;
10902;SDS011;5504;47.312;11.060;2023-04-24T03:15:32;0.30;;;0.30;;
10902;SDS011;5504;47.312;11.060;2023-04-24T03:17:58;0.30;;;0.30;;
10902;SDS011;5504;47.312;11.060;2023-04-24T03:20:23;0.40;;;0.40;;
10902;SDS011;5504;47.312;11.060;2023-04-24T03:22:49;0.70;;;0.40;;
10902;SDS011;5504;47.312;11.060;2023-04-24T03:25:15;0.40;;;0.40;;
10902;SDS011;5504;47.312;11.060;2023-04-24T03:27:40;0.30;;;0.30;;
10902;SDS011;5504;47.312;11.060;2023-04-24T03:30:06;0.77;;;0.33;;
10902;SDS011;5504;47.312;11.060;2023-04-24T03:32:33;0.90;;;0.70;;
10902;SDS011;5504;47.312;11.060;2023-04-24T03:35:00;1.70;;;1.30;;
10902;SDS011;5504;47.312;11.060;2023-04-24T03:37:26;1.57;;;1.00;;
10902;SDS011;5504;47.312;11.060;2023-04-24T03:39:52;1.20;;;0.53;;
10902;SDS011;5504;47.312;11.060;2023-04-24T03:42:17;0.30;;;0.30;;
10902;SDS011;5504;47.312;11.060;2023-04-24T03:44:43;0.57;;;0.40;;
10902;SDS011;5504;47.312;11.060;2023-04-24T03:47:09;1.17;;;0.30;;
10902;SDS011;5504;47.312;11.060;2023-04-24T03:49:35;0.30;;;0.30;;
10902;SDS011;5504;47.312;11.060;2023-04-24T03:52:00;0.30;;;0.30;;
10902;SDS011;5504;47.312;11.060;2023-04-24T03:54:26;0.60;;;0.30;;
10902;SDS011;5504;47.312;11.060;2023-04-24T03:56:52;0.30;;;0.30;;
10902;SDS011;5504;47.312;11.060;2023-04-24T03:59:17;0.30;;;0.30;;
10902;SDS011;5504;47.312;11.060;2023-04-24T04:01:43;0.40;;;0.40;;
10902;SDS011;5504;47.312;11.060;2023-04-24T04:04:10;0.57;;;0.57;;
10902;SDS011;5504;47.312;11.060;2023-04-24T04:06:36;1.30;;;0.70;;
10902;SDS011;5504;47.312;11.060;2023-04-24T04:09:02;3.07;;;0.83;;
10902;SDS011;5504;47.312;11.060;2023-04-24T04:11:28;1.80;;;0.43;;
10902;SDS011;5504;47.312;11.060;2023-04-24T04:13:54;0.57;;;0.40;;
10902;SDS011;5504;47.312;11.060;2023-04-24T04:16:20;0.87;;;0.40;;
10902;SDS011;5504;47.312;11.060;2023-04-24T04:18:46;0.33;;;0.30;;
10902;SDS011;5504;47.312;11.060;2023-04-24T04:21:11;0.50;;;0.50;;
10902;SDS011;5504;47.312;11.060;2023-04-24T04:23:37;0.40;;;0.40;;
10902;SDS011;5504;47.312;11.060;2023-04-24T04:26:03;0.70;;;0.60;;
10902;SDS011;5504;47.312;11.060;2023-04-24T04:28:29;0.70;;;0.30;;
10902;SDS011;5504;47.312;11.060;2023-04-24T04:30:58;1.10;;;0.50;;
10902;SDS011;5504;47.312;11.060;2023-04-24T04:33:23;0.30;;;0.30;;
10902;SDS011;5504;47.312;11.060;2023-04-24T04:35:51;1.70;;;0.30;;
10902;SDS011;5504;47.312;11.060;2023-04-24T04:38:17;0.70;;;0.43;;
10902;SDS011;5504;47.312;11.060;2023-04-24T04:40:44;0.40;;;0.40;;
10902;SDS011;5504;47.312;11.060;2023-04-24T04:43:10;0.47;;;0.40;;
10902;SDS011;5504;47.312;11.060;2023-04-24T04:45:36;1.13;;;0.30;;
10902;SDS011;5504;47.312;11.060;2023-04-24T04:48:04;0.30;;;0.30;;
10902;SDS011;5504;47.312;11.060;2023-04-24T04:50:32;0.73;;;0.50;;
10902;SDS011;5504;47.312;11.060;2023-04-24T04:52:58;1.07;;;0.40;;
10902;SDS011;5504;47.312;11.060;2023-04-24T04:55:23;0.30;;;0.30;;
10902;SDS011;5504;47.312;11.060;2023-04-24T04:57:49;0.87;;;0.40;;
10902;SDS011;5504;47.312;11.060;2023-04-24T05:00:16;0.33;;;0.30;;
10902;SDS011;5504;47.312;11.060;2023-04-24T05:02:41;0.30;;;0.30;;
10902;SDS011;5504;47.312;11.060;2023-04-24T05:05:07;0.67;;;0.40;;
10902;SDS011;5504;47.312;11.060;2023-04-24T05:07:33;0.40;;;0.40;;
10902;SDS011;5504;47.312;11.060;2023-04-24T05:09:59;0.70;;;0.50;;
10902;SDS011;5504;47.312;11.060;2023-04-24T05:12:25;0.77;;;0.60;;
10902;SDS011;5504;47.312;11.060;2023-04-24T05:14:51;1.23;;;0.50;;
10902;SDS011;5504;47.312;11.060;2023-04-24T05:17:17;1.27;;;0.50;;
10902;SDS011;5504;47.312;11.060;2023-04-24T05:19:43;0.57;;;0.40;;
10902;SDS011;5504;47.312;11.060;2023-04-24T05:22:10;0.90;;;0.40;;
10902;SDS011;5504;47.312;11.060;2023-04-24T05:24:36;1.60;;;0.70;;
10902;SDS011;5504;47.312;11.060;2023-04-24T05:27:02;1.10;;;0.50;;
10902;SDS011;5504;47.312;11.060;2023-04-24T05:29:29;0.67;;;0.50;;
10902;SDS011;5504;47.312;11.060;2023-04-24T05:31:58;0.73;;;0.50;;
10902;SDS011;5504;47.312;11.060;2023-04-24T05:34:25;0.93;;;0.50;;
10902;SDS011;5504;47.312;11.060;2023-04-24T05:36:51;0.40;;;0.40;;
10902;SDS011;5504;47.312;11.060;2023-04-24T05:39:16;0.50;;;0.50;;
10902;SDS011;5504;47.312;11.060;2023-04-24T05:41:43;0.40;;;0.40;;
10902;SDS011;5504;47.312;11.060;2023-04-24T05:44:08;0.63;;;0.30;;
10902;SDS011;5504;47.312;11.060;2023-04-24T05:46:34;0.53;;;0.30;;
10902;SDS011;5504;47.312;11.060;2023-04-24T05:49:00;1.00;;;0.30;;
10902;SDS011;5504;47.312;11.060;2023-04-24T05:51:27;0.43;;;0.30;;
10902;SDS011;5504;47.312;11.060;2023-04-24T05:53:52;0.40;;;0.40;;
10902;SDS011;5504;47.312;11.060;2023-04-24T05:56:18;0.67;;;0.30;;
10902;SDS011;5504;47.312;11.060;2023-04-24T05:58:45;0.40;;;0.40;;
10902;SDS011;5504;47.312;11.060;2023-04-24T06:01:11;1.47;;;0.50;;
10902;SDS011;5504;47.312;11.060;2023-04-24T06:03:39;0.63;;;0.50;;
10902;SDS011;5504;47.312;11.060;2023-04-24T06:06:06;0.40;;;0.40;;
10902;SDS011;5504;47.312;11.060;2023-04-24T06:08:32;1.33;;;0.37;;
10902;SDS011;5504;47.312;11.060;2023-04-24T06:10:58;1.13;;;0.40;;
10902;SDS011;5504;47.312;11.060;2023-04-24T06:13:23;0.30;;;0.30;;
10902;SDS011;5504;47.312;11.060;2023-04-24T06:15:49;0.80;;;0.50;;
10902;SDS011;5504;47.312;11.060;2023-04-24T06:18:15;1.23;;;0.50;;
10902;SDS011;5504;47.312;11.060;2023-04-24T06:20:41;0.97;;;0.40;;
10902;SDS011;5504;47.312;11.060;2023-04-24T06:23:07;0.63;;;0.50;;
10902;SDS011;5504;47.312;11.060;2023-04-24T06:25:33;0.80;;;0.60;;
10902;SDS011;5504;47.312;11.060;2023-04-24T06:27:59;1.73;;;1.00;;
10902;SDS011;5504;47.312;11.060;2023-04-24T06:30:24;2.83;;;1.30;;
10902;SDS011;5504;47.312;11.060;2023-04-24T06:32:50;1.60;;;1.10;;
10902;SDS011;5504;47.312;11.060;2023-04-24T06:35:16;1.50;;;1.37;;
10902;SDS011;5504;47.312;11.060;2023-04-24T06:37:42;1.07;;;0.70;;
10902;SDS011;5504;47.312;11.060;2023-04-24T06:40:08;1.07;;;0.80;;
10902;SDS011;5504;47.312;11.060;2023-04-24T06:42:35;0.97;;;0.90;;
10902;SDS011;5504;47.312;11.060;2023-04-24T06:45:01;1.17;;;0.80;;
10902;SDS011;5504;47.312;11.060;2023-04-24T06:47:28;1.87;;;1.20;;
10902;SDS011;5504;47.312;11.060;2023-04-24T06:49:54;1.20;;;1.10;;
10902;SDS011;5504;47.312;11.060;2023-04-24T06:52:20;1.07;;;0.90;;
10902;SDS011;5504;47.312;11.060;2023-04-24T06:54:46;1.33;;;0.80;;
10902;SDS011;5504;47.312;11.060;2023-04-24T06:57:11;1.83;;;1.10;;
10902;SDS011;5504;47.312;11.060;2023-04-24T06:59:37;2.00;;;1.00;;
10902;SDS011;5504;47.312;11.060;2023-04-24T07:02:03;1.40;;;1.30;;
10902;SDS011;5504;47.312;11.060;2023-04-24T07:04:29;1.67;;;1.57;;
10902;SDS011;5504;47.312;11.060;2023-04-24T07:06:55;1.70;;;1.47;;
10902;SDS011;5504;47.312;11.060;2023-04-24T07:09:23;1.73;;;1.60;;
10902;SDS011;5504;47.312;11.060;2023-04-24T07:11:50;1.70;;;1.60;;
10902;SDS011;5504;47.312;11.060;2023-04-24T07:14:17;1.40;;;1.30;;
10902;SDS011;5504;47.312;11.060;2023-04-24T07:16:42;1.47;;;1.27;;
10902;SDS011;5504;47.312;11.060;2023-04-24T07:19:08;1.73;;;1.30;;
10902;SDS011;5504;47.312;11.060;2023-04-24T07:21:34;2.33;;;1.60;;
10902;SDS011;5504;47.312;11.060;2023-04-24T07:24:00;1.50;;;1.40;;
10902;SDS011;5504;47.312;11.060;2023-04-24T07:26:27;2.70;;;1.70;;
10902;SDS011;5504;47.312;11.060;2023-04-24T07:28:55;1.97;;;1.43;;
10902;SDS011;5504;47.312;11.060;2023-04-24T07:31:21;2.13;;;1.50;;
10902;SDS011;5504;47.312;11.060;2023-04-24T07:33:47;1.40;;;1.30;;
10902;SDS011;5504;47.312;11.060;2023-04-24T07:36:12;2.80;;;1.33;;
10902;SDS011;5504;47.312;11.060;2023-04-24T07:38:42;1.60;;;1.03;;
10902;SDS011;5504;47.312;11.060;2023-04-24T07:41:08;1.07;;;1.00;;
10902;SDS011;5504;47.312;11.060;2023-04-24T07:43:34;1.13;;;1.03;;
10902;SDS011;5504;47.312;11.060;2023-04-24T07:46:00;1.10;;;1.00;;
10902;SDS011;5504;47.312;11.060;2023-04-24T07:48:26;1.23;;;0.90;;
10902;SDS011;5504;47.312;11.060;2023-04-24T07:50:52;0.90;;;0.80;;
10902;SDS011;5504;47.312;11.060;2023-04-24T07:53:18;1.00;;;0.90;;
10902;SDS011;5504;47.312;11.060;2023-04-24T07:55:44;0.83;;;0.83;;
10902;SDS011;5504;47.312;11.060;2023-04-24T07:58:10;1.00;;;0.87;;
10902;SDS011;5504;47.312;11.060;2023-04-24T08:00:35;0.70;;;0.70;;
10902;SDS011;5504;47.312;11.060;2023-04-24T08:03:01;2.00;;;0.80;;
10902;SDS011;5504;47.312;11.060;2023-04-24T08:05:27;0.83;;;0.70;;
10902;SDS011;5504;47.312;11.060;2023-04-24T08:07:53;0.73;;;0.70;;
10902;SDS011;5504;47.312;11.060;2023-04-24T08:10:23;0.70;;;0.60;;
10902;SDS011;5504;47.312;11.060;2023-04-24T08:12:49;0.57;;;0.50;;
10902;SDS011;5504;47.312;11.060;2023-04-24T08:15:14;1.27;;;0.60;;
10902;SDS011;5504;47.312;11.060;2023-04-24T08:17:40;1.90;;;0.60;;
10902;SDS011;5504;47.312;11.060;2023-04-24T08:20:06;1.73;;;0.60;;
10902;SDS011;5504;47.312;11.060;2023-04-24T08:22:38;0.57;;;0.50;;
10902;SDS011;5504;47.312;11.060;2023-04-24T08:25:05;0.50;;;0.50;;
10902;SDS011;5504;47.312;11.060;2023-04-24T08:27:31;0.60;;;0.60;;
10902;SDS011;5504;47.312;11.060;2023-04-24T08:29:57;0.63;;;0.60;;
10902;SDS011;5504;47.312;11.060;2023-04-24T08:32:23;0.97;;;0.70;;
10902;SDS011;5504;47.312;11.060;2023-04-24T08:34:49;1.03;;;0.60;;
10902;SDS011;5504;47.312;11.060;2023-04-24T08:37:17;0.57;;;0.57;;
10902;SDS011;5504;47.312;11.060;2023-04-24T08:39:43;0.97;;;0.50;;
10902;SDS011;5504;47.312;11.060;2023-04-24T08:42:09;1.13;;;0.80;;
10902;SDS011;5504;47.312;11.060;2023-04-24T08:44:37;0.60;;;0.60;;
10902;SDS011;5504;47.312;11.060;2023-04-24T08:47:03;0.50;;;0.50;;
10902;SDS011;5504;47.312;11.060;2023-04-24T08:49:30;1.80;;;0.50;;
10902;SDS011;5504;47.312;11.060;2023-04-24T08:51:56;0.50;;;0.50;;
10902;SDS011;5504;47.312;11.060;2023-04-24T08:54:24;0.70;;;0.70;;
10902;SDS011;5504;47.312;11.060;2023-04-24T08:56:50;0.57;;;0.57;;
10902;SDS011;5504;47.312;11.060;2023-04-24T08:59:18;0.70;;;0.70;;
10902;SDS011;5504;47.312;11.060;2023-04-24T09:01:44;1.13;;;0.90;;
10902;SDS011;5504;47.312;11.060;2023-04-24T09:04:12;0.90;;;0.90;;
10902;SDS011;5504;47.312;11.060;2023-04-24T09:06:40;0.70;;;0.70;;
10902;SDS011;5504;47.312;11.060;2023-04-24T09:09:06;1.63;;;0.70;;
10902;SDS011;5504;47.312;11.060;2023-04-24T09:11:33;1.27;;;0.77;;
10902;SDS011;5504;47.312;11.060;2023-04-24T09:13:59;0.90;;;0.70;;
10902;SDS011;5504;47.312;11.060;2023-04-24T09:16:26;0.80;;;0.80;;
10902;SDS011;5504;47.312;11.060;2023-04-24T09:18:52;0.73;;;0.60;;
10902;SDS011;5504;47.312;11.060;2023-04-24T09:21:19;0.97;;;0.60;;
10902;SDS011;5504;47.312;11.060;2023-04-24T09:23:46;0.80;;;0.70;;
10902;SDS011;5504;47.312;11.060;2023-04-24T09:26:12;0.60;;;0.60;;
10902;SDS011;5504;47.312;11.060;2023-04-24T09:28:39;0.93;;;0.60;;
10902;SDS011;5504;47.312;11.060;2023-04-24T09:31:12;0.60;;;0.60;;
10902;SDS011;5504;47.312;11.060;2023-04-24T09:33:40;1.40;;;0.50;;
10902;SDS011;5504;47.312;11.060;2023-04-24T09:36:34;1.17;;;0.60;;
10902;SDS011;5504;47.312;11.060;2023-04-24T09:39:05;1.57;;;0.70;;
10902;SDS011;5504;47.312;11.060;2023-04-24T09:41:48;1.10;;;0.63;;
10902;SDS011;5504;47.312;11.060;2023-04-24T09:44:17;0.77;;;0.73;;
10902;SDS011;5504;47.312;11.060;2023-04-24T09:46:50;0.77;;;0.60;;
10902;SDS011;5504;47.312;11.060;2023-04-24T09:49:21;0.70;;;0.70;;
10902;SDS011;5504;47.312;11.060;2023-04-24T09:51:51;0.70;;;0.70;;
10902;SDS011;5504;47.312;11.060;2023-04-24T09:54:18;2.20;;;0.70;;
10902;SDS011;5504;47.312;11.060;2023-04-24T09:56:46;0.73;;;0.70;;
10902;SDS011;5504;47.312;11.060;2023-04-24T09:59:14;0.60;;;0.60;;
10902;SDS011;5504;47.312;11.060;2023-04-24T10:01:43;0.33;;;0.33;;
10902;SDS011;5504;47.312;11.060;2023-04-24T10:04:20;0.93;;;0.50;;
10902;SDS011;5504;47.312;11.060;2023-04-24T10:06:48;0.50;;;0.50;;
10902;SDS011;5504;47.312;11.060;2023-04-24T10:09:16;0.47;;;0.47;;
10902;SDS011;5504;47.312;11.060;2023-04-24T10:11:47;0.53;;;0.50;;
10902;SDS011;5504;47.312;11.060;2023-04-24T10:14:15;0.60;;;0.60;;
10902;SDS011;5504;47.312;11.060;2023-04-24T10:16:46;0.40;;;0.40;;
10902;SDS011;5504;47.312;11.060;2023-04-24T10:19:12;1.30;;;0.70;;
10902;SDS011;5504;47.312;11.060;2023-04-24T10:21:42;0.60;;;0.60;;
10902;SDS011;5504;47.312;11.060;2023-04-24T10:24:14;0.80;;;0.60;;
10902;SDS011;5504;47.312;11.060;2023-04-24T10:26:46;0.73;;;0.60;;
10902;SDS011;5504;47.312;11.060;2023-04-24T10:29:13;0.50;;;0.50;;
10902;SDS011;5504;47.312;11.060;2023-04-24T10:31:42;0.30;;;0.30;;
10902;SDS011;5504;47.312;11.060;2023-04-24T10:34:10;0.50;;;0.50;;
10902;SDS011;5504;47.312;11.060;2023-04-24T10:36:37;0.70;;;0.57;;
10902;SDS011;5504;47.312;11.060;2023-04-24T10:39:08;0.67;;;0.60;;
10902;SDS011;5504;47.312;11.060;2023-04-24T10:41:37;0.50;;;0.50;;
10902;SDS011;5504;47.312;11.060;2023-04-24T10:44:04;0.50;;;0.50;;
10902;SDS011;5504;47.312;11.060;2023-04-24T10:46:31;0.50;;;0.50;;
10902;SDS011;5504;47.312;11.060;2023-04-24T10:48:56;0.50;;;0.50;;
10902;SDS011;5504;47.312;11.060;2023-04-24T10:51:23;0.70;;;0.67;;
10902;SDS011;5504;47.312;11.060;2023-04-24T10:56:53;0.77;;;0.77;;
10902;SDS011;5504;47.312;11.060;2023-04-24T10:59:39;0.87;;;0.60;;
10902;SDS011;5504;47.312;11.060;2023-04-24T11:02:07;0.43;;;0.43;;
10902;SDS011;5504;47.312;11.060;2023-04-24T11:04:33;0.67;;;0.60;;
10902;SDS011;5504;47.312;11.060;2023-04-24T11:07:00;0.50;;;0.50;;
10902;SDS011;5504;47.312;11.060;2023-04-24T11:09:27;0.50;;;0.50;;
10902;SDS011;5504;47.312;11.060;2023-04-24T11:12:05;0.83;;;0.40;;
10902;SDS011;5504;47.312;11.060;2023-04-24T11:17:35;0.30;;;0.30;;
10902;SDS011;5504;47.312;11.060;2023-04-24T11:20:09;0.30;;;0.30;;
10902;SDS011;5504;47.312;11.060;2023-04-24T11:22:37;0.30;;;0.30;;
10902;SDS011;5504;47.312;11.060;2023-04-24T11:25:08;0.87;;;0.30;;
10902;SDS011;5504;47.312;11.060;2023-04-24T11:27:43;0.37;;;0.37;;
10902;SDS011;5504;47.312;11.060;2023-04-24T11:30:11;0.23;;;0.23;;
10902;SDS011;5504;47.312;11.060;2023-04-24T11:37:47;0.30;;;0.30;;
10902;SDS011;5504;47.312;11.060;2023-04-24T11:40:14;0.20;;;0.20;;
10902;SDS011;5504;47.312;11.060;2023-04-24T11:42:44;0.30;;;0.30;;
10902;SDS011;5504;47.312;11.060;2023-04-24T11:45:17;1.13;;;0.40;;
10902;SDS011;5504;47.312;11.060;2023-04-24T11:47:54;0.40;;;0.40;;
10902;SDS011;5504;47.312;11.060;2023-04-24T11:50:24;0.73;;;0.73;;
10902;SDS011;5504;47.312;11.060;2023-04-24T11:52:52;0.43;;;0.43;;
10902;SDS011;5504;47.312;11.060;2023-04-24T11:57:44;0.83;;;0.30;;
10902;SDS011;5504;47.312;11.060;2023-04-24T12:00:21;0.47;;;0.47;;
10902;SDS011;5504;47.312;11.060;2023-04-24T12:02:49;0.40;;;0.40;;
10902;SDS011;5504;47.312;11.060;2023-04-24T12:05:27;0.57;;;0.50;;
10902;SDS011;5504;47.312;11.060;2023-04-24T12:07:56;0.87;;;0.50;;
10902;SDS011;5504;47.312;11.060;2023-04-24T12:10:25;0.40;;;0.40;;
10902;SDS011;5504;47.312;11.060;2023-04-24T12:12:53;0.93;;;0.40;;
10902;SDS011;5504;47.312;11.060;2023-04-24T12:15:20;0.43;;;0.40;;
10902;SDS011;5504;47.312;11.060;2023-04-24T12:17:46;0.30;;;0.30;;
10902;SDS011;5504;47.312;11.060;2023-04-24T12:20:13;0.40;;;0.40;;
10902;SDS011;5504;47.312;11.060;2023-04-24T12:22:52;0.87;;;0.40;;
10902;SDS011;5504;47.312;11.060;2023-04-24T12:25:20;0.77;;;0.40;;
10902;SDS011;5504;47.312;11.060;2023-04-24T12:27:52;0.37;;;0.37;;
10902;SDS011;5504;47.312;11.060;2023-04-24T12:30:20;0.37;;;0.37;;
10902;SDS011;5504;47.312;11.060;2023-04-24T12:32:48;1.07;;;0.47;;
10902;SDS011;5504;47.312;11.060;2023-04-24T12:35:25;2.00;;;0.40;;
10902;SDS011;5504;47.312;11.060;2023-04-24T12:37:53;0.40;;;0.40;;
10902;SDS011;5504;47.312;11.060;2023-04-24T12:40:19;1.03;;;0.40;;
10902;SDS011;5504;47.312;11.060;2023-04-24T12:42:50;0.40;;;0.40;;
10902;SDS011;5504;47.312;11.060;2023-04-24T12:45:17;0.40;;;0.40;;
10902;SDS011;5504;47.312;11.060;2023-04-24T12:47:44;0.50;;;0.30;;
10902;SDS011;5504;47.312;11.060;2023-04-24T12:50:11;0.30;;;0.30;;
10902;SDS011;5504;47.312;11.060;2023-04-24T12:52:39;0.40;;;0.40;;
10902;SDS011;5504;47.312;11.060;2023-04-24T12:55:05;0.27;;;0.27;;
10902;SDS011;5504;47.312;11.060;2023-04-24T12:57:35;0.40;;;0.30;;
10902;SDS011;5504;47.312;11.060;2023-04-24T13:00:03;0.37;;;0.23;;
10902;SDS011;5504;47.312;11.060;2023-04-24T13:02:29;0.30;;;0.30;;
10902;SDS011;5504;47.312;11.060;2023-04-24T13:04:56;0.50;;;0.30;;
10902;SDS011;5504;47.312;11.060;2023-04-24T13:07:26;0.30;;;0.30;;
10902;SDS011;5504;47.312;11.060;2023-04-24T13:09:52;0.30;;;0.30;;
10902;SDS011;5504;47.312;11.060;2023-04-24T13:12:19;0.30;;;0.30;;
10902;SDS011;5504;47.312;11.060;2023-04-24T13:14:45;0.30;;;0.30;;
10902;SDS011;5504;47.312;11.060;2023-04-24T13:17:11;0.60;;;0.60;;
10902;SDS011;5504;47.312;11.060;2023-04-24T13:19:38;0.40;;;0.40;;
10902;SDS011;5504;47.312;11.060;2023-04-24T13:22:05;0.50;;;0.50;;
10902;SDS011;5504;47.312;11.060;2023-04-24T13:24:32;0.63;;;0.53;;
10902;SDS011;5504;47.312;11.060;2023-04-24T13:26:58;0.40;;;0.40;;
10902;SDS011;5504;47.312;11.060;2023-04-24T13:29:24;0.40;;;0.40;;
10902;SDS011;5504;47.312;11.060;2023-04-24T13:31:50;1.07;;;0.50;;
10902;SDS011;5504;47.312;11.060;2023-04-24T13:34:16;0.40;;;0.40;;
10902;SDS011;5504;47.312;11.060;2023-04-24T13:36:42;0.97;;;0.63;;
10902;SDS011;5504;47.312;11.060;2023-04-24T13:39:08;0.60;;;0.60;;
10902;SDS011;5504;47.312;11.060;2023-04-24T13:41:35;0.90;;;0.90;;
10902;SDS011;5504;47.312;11.060;2023-04-24T13:44:01;0.60;;;0.60;;
10902;SDS011;5504;47.312;11.060;2023-04-24T13:46:27;0.50;;;0.50;;
10902;SDS011;5504;47.312;11.060;2023-04-24T13:48:53;0.50;;;0.50;;
10902;SDS011;5504;47.312;11.060;2023-04-24T13:51:19;0.47;;;0.40;;
10902;SDS011;5504;47.312;11.060;2023-04-24T13:53:45;0.87;;;0.60;;
10902;SDS011;5504;47.312;11.060;2023-04-24T13:56:10;0.53;;;0.50;;
10902;SDS011;5504;47.312;11.060;2023-04-24T13:58:37;0.97;;;0.67;;
10902;SDS011;5504;47.312;11.060;2023-04-24T14:01:03;0.60;;;0.60;;
10902;SDS011;5504;47.312;11.060;2023-04-24T14:03:29;0.80;;;0.60;;
10902;SDS011;5504;47.312;11.060;2023-04-24T14:05:55;0.60;;;0.60;;
10902;SDS011;5504;47.312;11.060;2023-04-24T14:08:21;0.40;;;0.40;;
10902;SDS011;5504;47.312;11.060;2023-04-24T14:10:47;4.33;;;2.63;;
10902;SDS011;5504;47.312;11.060;2023-04-24T14:13:12;5.53;;;2.50;;
10902;SDS011;5504;47.312;11.060;2023-04-24T14:15:38;0.70;;;0.60;;
10902;SDS011;5504;47.312;11.060;2023-04-24T14:18:04;1.53;;;1.10;;
10902;SDS011;5504;47.312;11.060;2023-04-24T14:20:30;2.27;;;1.30;;
10902;SDS011;5504;47.312;11.060;2023-04-24T14:22:56;1.27;;;0.60;;
10902;SDS011;5504;47.312;11.060;2023-04-24T14:25:24;1.37;;;0.40;;
10902;SDS011;5504;47.312;11.060;2023-04-24T14:27:50;7.63;;;4.57;;
10902;SDS011;5504;47.312;11.060;2023-04-24T14:30:16;10.43;;;5.60;;
10902;SDS011;5504;47.312;11.060;2023-04-24T14:32:42;8.53;;;4.57;;
10902;SDS011;5504;47.312;11.060;2023-04-24T14:35:08;3.40;;;2.17;;
10902;SDS011;5504;47.312;11.060;2023-04-24T14:37:34;2.20;;;1.57;;
10902;SDS011;5504;47.312;11.060;2023-04-24T14:40:00;2.77;;;1.83;;
10902;SDS011;5504;47.312;11.060;2023-04-24T14:42:26;10.47;;;5.33;;
10902;SDS011;5504;47.312;11.060;2023-04-24T14:44:53;17.60;;;8.97;;
10902;SDS011;5504;47.312;11.060;2023-04-24T14:47:20;16.97;;;8.93;;
10902;SDS011;5504;47.312;11.060;2023-04-24T14:49:48;5.50;;;2.90;;
10902;SDS011;5504;47.312;11.060;2023-04-24T14:52:14;4.27;;;2.20;;
10902;SDS011;5504;47.312;11.060;2023-04-24T14:54:41;1.37;;;1.10;;
10902;SDS011;5504;47.312;11.060;2023-04-24T14:57:07;0.80;;;0.70;;
10902;SDS011;5504;47.312;11.060;2023-04-24T14:59:33;1.07;;;0.97;;